sensor_id;sensor_type;location;lat;lon;timestamp;pressure;altitude;pressure_sealevel;temperature;humidity
73600;BME280;61877;48.246;9.220;2023-04-24T07:28:12;93350.31;;;9.64;75.21
73600;BME280;61877;48.246;9.220;2023-04-24T07:30:38;93353.09;;;9.68;76.67
73600;BME280;61877;48.246;9.220;2023-04-24T07:33:03;93353.56;;;9.73;75.99
73600;BME280;61877;48.246;9.220;2023-04-24T07:35:29;93358.13;;;9.88;76.61
73600;BME280;61877;48.246;9.220;2023-04-24T07:37:54;93352.22;;;9.98;77.52
73600;BME280;61877;48.246;9.220;2023-04-24T07:40:20;93364.72;;;10.10;74.06
73600;BME280;61877;48.246;9.220;2023-04-24T07:42:46;93363.00;;;10.02;72.61
73600;BME280;61877;48.246;9.220;2023-04-24T07:45:15;93362.00;;;9.91;69.50
73600;BME280;61877;48.246;9.220;2023-04-24T07:47:41;93370.84;;;9.91;73.01
73600;BME280;61877;48.246;9.220;2023-04-24T07:50:07;93353.34;;;9.97;71.34
73600;BME280;61877;48.246;9.220;2023-04-24T07:52:32;93362.44;;;9.93;76.11
73600;BME280;61877;48.246;9.220;2023-04-24T07:54:58;93375.78;;;9.74;75.01
73600;BME280;61877;48.246;9.220;2023-04-24T07:57:23;93408.97;;;9.23;75.77
73600;BME280;61877;48.246;9.220;2023-04-24T07:59:49;93400.72;;;8.41;81.85
73600;BME280;61877;48.246;9.220;2023-04-24T08:02:17;93417.91;;;8.28;83.77
73600;BME280;61877;48.246;9.220;2023-04-24T08:04:43;93422.53;;;7.79;84.69
73600;BME280;61877;48.246;9.220;2023-04-24T08:07:08;93427.75;;;7.76;84.85
73600;BME280;61877;48.246;9.220;2023-04-24T08:09:34;93424.09;;;7.56;85.50
73600;BME280;61877;48.246;9.220;2023-04-24T08:12:02;93447.78;;;7.34;86.26
73600;BME280;61877;48.246;9.220;2023-04-24T08:14:28;93439.19;;;7.28;86.93
73600;BME280;61877;48.246;9.220;2023-04-24T08:16:54;93437.75;;;7.19;86.34
73600;BME280;61877;48.246;9.220;2023-04-24T08:19:21;93434.09;;;7.59;88.63
73600;BME280;61877;48.246;9.220;2023-04-24T08:21:47;93432.41;;;7.91;85.51
73600;BME280;61877;48.246;9.220;2023-04-24T08:24:12;93434.84;;;8.08;83.15
73600;BME280;61877;48.246;9.220;2023-04-24T08:26:38;93439.34;;;8.44;84.64
73600;BME280;61877;48.246;9.220;2023-04-24T08:29:04;93426.22;;;8.39;80.64
73600;BME280;61877;48.246;9.220;2023-04-24T08:31:29;93439.13;;;8.76;83.09
73600;BME280;61877;48.246;9.220;2023-04-24T08:33:55;93434.16;;;9.06;81.52
73600;BME280;61877;48.246;9.220;2023-04-24T08:36:22;93440.16;;;9.46;79.61
73600;BME280;61877;48.246;9.220;2023-04-24T08:38:48;93436.41;;;9.82;81.99
73600;BME280;61877;48.246;9.220;2023-04-24T08:41:14;93447.06;;;9.63;79.18
73600;BME280;61877;48.246;9.220;2023-04-24T08:43:40;93444.28;;;9.90;80.97
73600;BME280;61877;48.246;9.220;2023-04-24T08:46:07;93436.78;;;9.34;76.48
73600;BME280;61877;48.246;9.220;2023-04-24T08:48:32;93448.13;;;9.58;77.65
73600;BME280;61877;48.246;9.220;2023-04-24T08:50:59;93458.56;;;9.79;75.64
73600;BME280;61877;48.246;9.220;2023-04-24T08:53:26;93455.47;;;9.61;77.06
73600;BME280;61877;48.246;9.220;2023-04-24T08:55:54;93460.00;;;9.45;76.38
73600;BME280;61877;48.246;9.220;2023-04-24T08:58:20;93467.66;;;9.15;78.30
73600;BME280;61877;48.246;9.220;2023-04-24T09:00:46;93466.03;;;9.11;75.60
73600;BME280;61877;48.246;9.220;2023-04-24T09:03:13;93471.91;;;8.89;75.76
73600;BME280;61877;48.246;9.220;2023-04-24T09:05:41;93465.50;;;9.05;76.37
73600;BME280;61877;48.246;9.220;2023-04-24T09:08:08;93469.78;;;8.94;76.32
73600;BME280;61877;48.246;9.220;2023-04-24T09:10:35;93470.50;;;9.07;75.48
73600;BME280;61877;48.246;9.220;2023-04-24T09:13:01;93464.44;;;9.69;75.00
73600;BME280;61877;48.246;9.220;2023-04-24T09:15:26;93459.22;;;10.22;75.82
73600;BME280;61877;48.246;9.220;2023-04-24T09:17:52;93446.63;;;10.42;70.06
73600;BME280;61877;48.246;9.220;2023-04-24T09:20:18;93439.28;;;10.96;72.09
73600;BME280;61877;48.246;9.220;2023-04-24T09:22:45;93446.94;;;11.81;66.19
73600;BME280;61877;48.246;9.220;2023-04-24T09:25:10;93439.69;;;11.62;64.85
73600;BME280;61877;48.246;9.220;2023-04-24T09:27:41;93452.25;;;11.55;66.39
73600;BME280;61877;48.246;9.220;2023-04-24T09:30:08;93451.03;;;11.30;71.47
73600;BME280;61877;48.246;9.220;2023-04-24T09:32:34;93453.31;;;11.09;68.37
73600;BME280;61877;48.246;9.220;2023-04-24T09:35:07;93463.13;;;11.20;71.37
73600;BME280;61877;48.246;9.220;2023-04-24T09:37:35;93476.56;;;11.20;69.95
73600;BME280;61877;48.246;9.220;2023-04-24T09:40:08;93471.50;;;11.38;70.93
73600;BME280;61877;48.246;9.220;2023-04-24T09:42:34;93480.00;;;11.62;65.82
73600;BME280;61877;48.246;9.220;2023-04-24T09:45:01;93493.06;;;11.83;65.13
73600;BME280;61877;48.246;9.220;2023-04-24T09:47:27;93488.63;;;11.30;61.00
73600;BME280;61877;48.246;9.220;2023-04-24T09:49:57;93493.22;;;11.10;62.07
73600;BME280;61877;48.246;9.220;2023-04-24T09:52:23;93490.13;;;11.27;60.33
73600;BME280;61877;48.246;9.220;2023-04-24T09:54:53;93504.97;;;11.02;57.24
73600;BME280;61877;48.246;9.220;2023-04-24T09:57:19;93516.69;;;10.25;58.98
73600;BME280;61877;48.246;9.220;2023-04-24T09:59:46;93531.34;;;9.38;62.73
73600;BME280;61877;48.246;9.220;2023-04-24T10:02:30;93516.25;;;9.61;62.93
73600;BME280;61877;48.246;9.220;2023-04-24T10:04:57;93521.31;;;10.24;62.34
73600;BME280;61877;48.246;9.220;2023-04-24T10:07:28;93519.13;;;10.30;60.73
73600;BME280;61877;48.246;9.220;2023-04-24T10:09:54;93517.56;;;9.98;61.72
73600;BME280;61877;48.246;9.220;2023-04-24T10:12:21;93520.50;;;9.77;62.59
73600;BME280;61877;48.246;9.220;2023-04-24T10:14:47;93516.69;;;10.25;61.89
73600;BME280;61877;48.246;9.220;2023-04-24T10:17:14;93507.69;;;10.33;61.56
73600;BME280;61877;48.246;9.220;2023-04-24T10:19:42;93515.00;;;10.52;60.88
73600;BME280;61877;48.246;9.220;2023-04-24T10:22:09;93499.16;;;11.19;58.49
73600;BME280;61877;48.246;9.220;2023-04-24T10:24:35;93498.34;;;12.80;58.19
73600;BME280;61877;48.246;9.220;2023-04-24T10:27:02;93498.69;;;12.23;57.26
73600;BME280;61877;48.246;9.220;2023-04-24T10:29:31;93499.75;;;12.71;56.37
73600;BME280;61877;48.246;9.220;2023-04-24T10:31:57;93498.69;;;13.38;55.16
73600;BME280;61877;48.246;9.220;2023-04-24T10:34:22;93507.06;;;13.66;51.20
73600;BME280;61877;48.246;9.220;2023-04-24T10:36:51;93501.25;;;12.94;49.62
73600;BME280;61877;48.246;9.220;2023-04-24T10:39:18;93511.22;;;12.94;50.85
73600;BME280;61877;48.246;9.220;2023-04-24T10:41:44;93507.56;;;12.50;50.24
73600;BME280;61877;48.246;9.220;2023-04-24T10:44:11;93523.34;;;13.40;53.12
73600;BME280;61877;48.246;9.220;2023-04-24T10:46:38;93526.44;;;13.09;53.23
73600;BME280;61877;48.246;9.220;2023-04-24T10:49:07;93538.09;;;11.90;54.26
73600;BME280;61877;48.246;9.220;2023-04-24T10:51:47;93524.06;;;12.26;54.27
73600;BME280;61877;48.246;9.220;2023-04-24T10:54:24;93522.31;;;11.88;54.90
73600;BME280;61877;48.246;9.220;2023-04-24T10:56:50;93517.22;;;11.41;57.09
73600;BME280;61877;48.246;9.220;2023-04-24T10:59:25;93522.84;;;12.20;55.80
73600;BME280;61877;48.246;9.220;2023-04-24T11:01:53;93532.63;;;12.57;55.37
73600;BME280;61877;48.246;9.220;2023-04-24T11:04:28;93536.66;;;12.96;53.72
73600;BME280;61877;48.246;9.220;2023-04-24T11:06:54;93527.59;;;13.08;52.58
73600;BME280;61877;48.246;9.220;2023-04-24T11:09:20;93545.72;;;12.85;51.25
73600;BME280;61877;48.246;9.220;2023-04-24T11:11:47;93534.53;;;11.86;52.24
73600;BME280;61877;48.246;9.220;2023-04-24T11:14:14;93543.38;;;11.06;55.32
73600;BME280;61877;48.246;9.220;2023-04-24T11:16:43;93537.66;;;10.89;56.49
73600;BME280;61877;48.246;9.220;2023-04-24T11:19:10;93539.84;;;10.83;57.92
73600;BME280;61877;48.246;9.220;2023-04-24T11:21:43;93563.06;;;10.76;56.50
73600;BME280;61877;48.246;9.220;2023-04-24T11:24:28;93554.41;;;11.39;53.59
73600;BME280;61877;48.246;9.220;2023-04-24T11:26:56;93540.47;;;12.95;51.92
73600;BME280;61877;48.246;9.220;2023-04-24T11:29:22;93526.25;;;12.17;50.18
73600;BME280;61877;48.246;9.220;2023-04-24T11:32:18;93541.50;;;12.58;49.79
73600;BME280;61877;48.246;9.220;2023-04-24T11:34:47;93528.50;;;13.19;49.21
73600;BME280;61877;48.246;9.220;2023-04-24T11:37:12;93524.94;;;14.21;44.86
73600;BME280;61877;48.246;9.220;2023-04-24T11:39:38;93546.53;;;13.15;43.67
73600;BME280;61877;48.246;9.220;2023-04-24T15:36:27;93561.94;;;13.15;45.44
73600;BME280;61877;48.246;9.220;2023-04-24T15:38:52;93559.81;;;13.31;45.26
73600;BME280;61877;48.246;9.220;2023-04-24T15:41:18;93557.66;;;13.14;44.99
73600;BME280;61877;48.246;9.220;2023-04-24T15:43:43;93559.69;;;12.94;45.71
73600;BME280;61877;48.246;9.220;2023-04-24T15:46:09;93557.63;;;12.58;45.35
73600;BME280;61877;48.246;9.220;2023-04-24T15:48:35;93559.47;;;12.54;46.64
73600;BME280;61877;48.246;9.220;2023-04-24T15:51:00;93559.03;;;12.26;46.64
73600;BME280;61877;48.246;9.220;2023-04-24T15:53:29;93555.72;;;12.58;46.04
73600;BME280;61877;48.246;9.220;2023-04-24T15:55:54;93555.88;;;12.98;45.50
73600;BME280;61877;48.246;9.220;2023-04-24T15:58:20;93554.94;;;13.43;43.53
73600;BME280;61877;48.246;9.220;2023-04-24T16:00:46;93557.47;;;12.99;43.99
73600;BME280;61877;48.246;9.220;2023-04-24T16:03:12;93563.06;;;12.87;44.25
73600;BME280;61877;48.246;9.220;2023-04-24T16:05:37;93565.66;;;14.09;45.03
73600;BME280;61877;48.246;9.220;2023-04-24T16:08:03;93564.03;;;14.92;40.48
73600;BME280;61877;48.246;9.220;2023-04-24T16:10:29;93558.16;;;14.26;41.28
73600;BME280;61877;48.246;9.220;2023-04-24T16:12:55;93564.66;;;13.84;42.80
73600;BME280;61877;48.246;9.220;2023-04-24T16:15:21;93559.75;;;13.27;43.33
73600;BME280;61877;48.246;9.220;2023-04-24T16:17:47;93566.66;;;12.98;43.83
73600;BME280;61877;48.246;9.220;2023-04-24T16:20:13;93569.63;;;12.15;44.61
73600;BME280;61877;48.246;9.220;2023-04-24T16:22:39;93564.59;;;11.68;45.98
73600;BME280;61877;48.246;9.220;2023-04-24T16:25:05;93569.72;;;11.58;46.59
73600;BME280;61877;48.246;9.220;2023-04-24T16:27:38;93568.41;;;11.10;48.55
73600;BME280;61877;48.246;9.220;2023-04-24T16:30:05;93566.97;;;10.97;48.21
73600;BME280;61877;48.246;9.220;2023-04-24T16:32:30;93571.19;;;10.79;48.33
73600;BME280;61877;48.246;9.220;2023-04-24T16:34:56;93570.31;;;10.75;49.78
73600;BME280;61877;48.246;9.220;2023-04-24T16:37:21;93567.38;;;10.80;49.32
73600;BME280;61877;48.246;9.220;2023-04-24T16:39:46;93569.72;;;10.66;49.96
73600;BME280;61877;48.246;9.220;2023-04-24T16:42:13;93574.97;;;10.59;49.72
73600;BME280;61877;48.246;9.220;2023-04-24T16:44:40;93565.59;;;10.53;49.91
73600;BME280;61877;48.246;9.220;2023-04-24T16:47:06;93568.06;;;10.43;50.46
73600;BME280;61877;48.246;9.220;2023-04-24T16:49:31;93565.38;;;10.43;52.05
73600;BME280;61877;48.246;9.220;2023-04-24T16:52:00;93575.50;;;10.33;51.91
73600;BME280;61877;48.246;9.220;2023-04-24T16:54:25;93571.75;;;10.38;52.02
73600;BME280;61877;48.246;9.220;2023-04-24T16:56:52;93576.03;;;10.39;51.72
73600;BME280;61877;48.246;9.220;2023-04-24T16:59:18;93573.34;;;10.39;52.63
73600;BME280;61877;48.246;9.220;2023-04-24T17:01:44;93574.88;;;10.40;53.05
73600;BME280;61877;48.246;9.220;2023-04-24T17:04:10;93576.97;;;10.31;53.20
73600;BME280;61877;48.246;9.220;2023-04-24T17:06:35;93578.63;;;10.35;53.20
73600;BME280;61877;48.246;9.220;2023-04-24T17:09:02;93580.78;;;10.30;53.33
73600;BME280;61877;48.246;9.220;2023-04-24T17:11:27;93582.44;;;10.19;57.01
73600;BME280;61877;48.246;9.220;2023-04-24T17:13:53;93589.44;;;10.08;55.90
73600;BME280;61877;48.246;9.220;2023-04-24T17:16:19;93583.25;;;10.07;56.07
73600;BME280;61877;48.246;9.220;2023-04-24T17:18:47;93592.78;;;9.89;55.90
73600;BME280;61877;48.246;9.220;2023-04-24T17:21:13;93593.38;;;9.83;56.30
73600;BME280;61877;48.246;9.220;2023-04-24T17:23:38;93592.03;;;9.61;57.28
73600;BME280;61877;48.246;9.220;2023-04-24T17:26:04;93602.41;;;9.78;57.13
73600;BME280;61877;48.246;9.220;2023-04-24T17:28:30;93594.41;;;9.94;57.82
73600;BME280;61877;48.246;9.220;2023-04-24T17:30:56;93592.13;;;10.08;56.40
73600;BME280;61877;48.246;9.220;2023-04-24T17:33:22;93595.13;;;10.06;55.97
73600;BME280;61877;48.246;9.220;2023-04-24T17:35:49;93588.75;;;10.11;56.45
73600;BME280;61877;48.246;9.220;2023-04-24T17:38:15;93596.13;;;10.02;57.44
73600;BME280;61877;48.246;9.220;2023-04-24T17:40:40;93595.03;;;10.03;57.85
73600;BME280;61877;48.246;9.220;2023-04-24T17:43:08;93592.53;;;10.10;58.93
73600;BME280;61877;48.246;9.220;2023-04-24T17:45:34;93596.13;;;10.02;59.54
73600;BME280;61877;48.246;9.220;2023-04-24T17:48:00;93586.13;;;9.99;58.10
73600;BME280;61877;48.246;9.220;2023-04-24T17:50:25;93590.34;;;9.84;58.39
73600;BME280;61877;48.246;9.220;2023-04-24T17:52:52;93579.25;;;9.70;58.19
73600;BME280;61877;48.246;9.220;2023-04-24T17:55:18;93578.53;;;9.58;58.94
73600;BME280;61877;48.246;9.220;2023-04-24T17:57:43;93583.25;;;9.49;59.32
73600;BME280;61877;48.246;9.220;2023-04-24T18:00:10;93579.28;;;9.43;59.84
73600;BME280;61877;48.246;9.220;2023-04-24T18:02:36;93576.66;;;9.31;61.08
73600;BME280;61877;48.246;9.220;2023-04-24T18:05:07;93582.50;;;9.21;61.43
73600;BME280;61877;48.246;9.220;2023-04-24T18:07:33;93579.81;;;9.21;60.90
73600;BME280;61877;48.246;9.220;2023-04-24T18:09:59;93576.38;;;9.20;62.25
73600;BME280;61877;48.246;9.220;2023-04-24T18:12:26;93577.81;;;9.18;61.88
73600;BME280;61877;48.246;9.220;2023-04-24T18:14:51;93579.94;;;9.12;61.95
73600;BME280;61877;48.246;9.220;2023-04-24T18:17:17;93580.13;;;9.03;62.86
73600;BME280;61877;48.246;9.220;2023-04-24T18:19:42;93588.63;;;8.93;63.74
73600;BME280;61877;48.246;9.220;2023-04-24T18:22:07;93580.72;;;8.85;63.83
73600;BME280;61877;48.246;9.220;2023-04-24T18:24:33;93584.41;;;8.80;64.78
73600;BME280;61877;48.246;9.220;2023-04-24T18:27:00;93587.41;;;8.79;62.68
73600;BME280;61877;48.246;9.220;2023-04-24T18:29:28;93594.00;;;8.69;63.93
73600;BME280;61877;48.246;9.220;2023-04-24T18:31:53;93598.25;;;8.58;64.36
73600;BME280;61877;48.246;9.220;2023-04-24T18:34:19;93603.84;;;8.53;64.73
73600;BME280;61877;48.246;9.220;2023-04-24T18:36:44;93601.94;;;8.54;63.93
73600;BME280;61877;48.246;9.220;2023-04-24T18:39:10;93601.06;;;8.50;64.36
73600;BME280;61877;48.246;9.220;2023-04-24T18:41:35;93601.72;;;8.47;63.77
73600;BME280;61877;48.246;9.220;2023-04-24T18:44:07;93611.75;;;8.38;66.36
73600;BME280;61877;48.246;9.220;2023-04-24T18:46:33;93610.28;;;8.28;66.85
73600;BME280;61877;48.246;9.220;2023-04-24T18:48:58;93608.38;;;8.17;67.78
73600;BME280;61877;48.246;9.220;2023-04-24T18:51:23;93611.16;;;8.08;68.86
73600;BME280;61877;48.246;9.220;2023-04-24T18:53:52;93610.13;;;8.13;67.31
73600;BME280;61877;48.246;9.220;2023-04-24T18:56:17;93606.94;;;8.07;69.14
73600;BME280;61877;48.246;9.220;2023-04-24T18:58:43;93611.25;;;8.12;68.88
73600;BME280;61877;48.246;9.220;2023-04-24T19:01:09;93611.16;;;8.08;72.54
73600;BME280;61877;48.246;9.220;2023-04-24T19:03:35;93616.38;;;8.05;72.85
73600;BME280;61877;48.246;9.220;2023-04-24T19:06:02;93620.59;;;7.94;73.06
73600;BME280;61877;48.246;9.220;2023-04-24T19:08:27;93628.34;;;7.86;73.02
73600;BME280;61877;48.246;9.220;2023-04-24T19:10:53;93633.25;;;7.84;73.83
73600;BME280;61877;48.246;9.220;2023-04-24T19:13:18;93632.50;;;7.84;73.54
73600;BME280;61877;48.246;9.220;2023-04-24T19:15:44;93632.38;;;7.80;74.88
73600;BME280;61877;48.246;9.220;2023-04-24T19:18:10;93638.03;;;7.91;69.19
73600;BME280;61877;48.246;9.220;2023-04-24T19:20:36;93644.16;;;7.92;69.76
73600;BME280;61877;48.246;9.220;2023-04-24T19:23:01;93646.06;;;7.91;71.91
73600;BME280;61877;48.246;9.220;2023-04-24T19:25:27;93647.97;;;7.91;72.79
73600;BME280;61877;48.246;9.220;2023-04-24T19:27:52;93644.50;;;7.90;70.75
73600;BME280;61877;48.246;9.220;2023-04-24T19:30:18;93647.53;;;8.01;67.74
73600;BME280;61877;48.246;9.220;2023-04-24T19:32:43;93642.88;;;8.10;66.33
73600;BME280;61877;48.246;9.220;2023-04-24T19:35:10;93637.31;;;8.15;65.02
73600;BME280;61877;48.246;9.220;2023-04-24T19:37:35;93636.72;;;8.09;66.60
73600;BME280;61877;48.246;9.220;2023-04-24T19:40:01;93633.41;;;8.00;66.04
73600;BME280;61877;48.246;9.220;2023-04-24T19:42:26;93635.16;;;7.96;66.26
73600;BME280;61877;48.246;9.220;2023-04-24T19:44:53;93635.72;;;8.02;66.73
73600;BME280;61877;48.246;9.220;2023-04-24T19:47:18;93634.81;;;7.85;66.97
73600;BME280;61877;48.246;9.220;2023-04-24T19:49:44;93625.78;;;7.66;70.62
73600;BME280;61877;48.246;9.220;2023-04-24T19:52:11;93632.34;;;7.48;71.30
73600;BME280;61877;48.246;9.220;2023-04-24T19:54:36;93642.09;;;7.32;71.26
73600;BME280;61877;48.246;9.220;2023-04-24T19:57:02;93645.22;;;7.13;73.26
73600;BME280;61877;48.246;9.220;2023-04-24T19:59:27;93642.00;;;7.08;74.29
73600;BME280;61877;48.246;9.220;2023-04-24T20:01:53;93648.22;;;6.91;74.24
73600;BME280;61877;48.246;9.220;2023-04-24T20:04:21;93646.38;;;6.83;74.27
73600;BME280;61877;48.246;9.220;2023-04-24T20:06:46;93649.13;;;6.75;75.52
73600;BME280;61877;48.246;9.220;2023-04-24T20:09:13;93652.34;;;6.60;76.88
73600;BME280;61877;48.246;9.220;2023-04-24T20:11:39;93653.19;;;6.51;78.87
73600;BME280;61877;48.246;9.220;2023-04-24T20:14:04;93664.22;;;6.41;80.66
73600;BME280;61877;48.246;9.220;2023-04-24T20:16:29;93662.66;;;6.32;81.39
73600;BME280;61877;48.246;9.220;2023-04-24T20:18:55;93657.44;;;6.15;80.69
73600;BME280;61877;48.246;9.220;2023-04-24T20:21:20;93642.31;;;5.98;81.26
73600;BME280;61877;48.246;9.220;2023-04-24T20:23:46;93641.25;;;5.82;81.32
73600;BME280;61877;48.246;9.220;2023-04-24T20:26:14;93628.25;;;5.72;81.51
73600;BME280;61877;48.246;9.220;2023-04-24T20:28:39;93625.50;;;5.60;81.64
73600;BME280;61877;48.246;9.220;2023-04-24T20:31:04;93614.53;;;5.53;81.26
73600;BME280;61877;48.246;9.220;2023-04-24T20:33:30;93610.13;;;5.57;82.06
73600;BME280;61877;48.246;9.220;2023-04-24T20:35:55;93611.41;;;5.60;79.94
73600;BME280;61877;48.246;9.220;2023-04-24T20:38:21;93610.88;;;5.83;78.76
73600;BME280;61877;48.246;9.220;2023-04-24T20:40:46;93608.22;;;5.83;78.73
73600;BME280;61877;48.246;9.220;2023-04-24T20:43:13;93607.59;;;5.69;79.64
73600;BME280;61877;48.246;9.220;2023-04-24T20:45:39;93615.09;;;5.76;78.63
73600;BME280;61877;48.246;9.220;2023-04-24T20:48:04;93621.06;;;5.64;78.18
73600;BME280;61877;48.246;9.220;2023-04-24T20:50:30;93624.56;;;5.39;79.32
73600;BME280;61877;48.246;9.220;2023-04-24T20:52:55;93623.97;;;5.25;81.23
73600;BME280;61877;48.246;9.220;2023-04-24T20:55:20;93625.25;;;5.10;82.56
73600;BME280;61877;48.246;9.220;2023-04-24T20:57:46;93622.44;;;4.90;82.69
73600;BME280;61877;48.246;9.220;2023-04-24T21:00:14;93618.69;;;4.74;83.19
73600;BME280;61877;48.246;9.220;2023-04-24T21:02:39;93628.03;;;4.63;84.26
73600;BME280;61877;48.246;9.220;2023-04-24T21:05:06;93622.88;;;4.58;84.76
73600;BME280;61877;48.246;9.220;2023-04-24T21:07:32;93625.22;;;4.51;84.60
73600;BME280;61877;48.246;9.220;2023-04-24T21:09:57;93624.75;;;4.49;84.69
73600;BME280;61877;48.246;9.220;2023-04-24T21:12:22;93617.56;;;4.41;86.10
73600;BME280;61877;48.246;9.220;2023-04-24T21:14:48;93618.19;;;4.38;86.15
73600;BME280;61877;48.246;9.220;2023-04-24T21:17:15;93614.09;;;4.32;85.85
73600;BME280;61877;48.246;9.220;2023-04-24T21:19:40;93615.47;;;4.21;86.39
73600;BME280;61877;48.246;9.220;2023-04-24T21:22:06;93602.97;;;4.13;86.40
73600;BME280;61877;48.246;9.220;2023-04-24T21:24:34;93605.16;;;4.11;87.17
73600;BME280;61877;48.246;9.220;2023-04-24T21:26:59;93600.91;;;4.01;86.58
73600;BME280;61877;48.246;9.220;2023-04-24T21:29:25;93588.56;;;3.96;86.90
73600;BME280;61877;48.246;9.220;2023-04-24T21:31:51;93585.13;;;4.05;86.86
73600;BME280;61877;48.246;9.220;2023-04-24T21:34:18;93581.91;;;4.16;86.05
73600;BME280;61877;48.246;9.220;2023-04-24T21:36:43;93582.22;;;4.32;85.65
73600;BME280;61877;48.246;9.220;2023-04-24T21:39:09;93579.59;;;4.49;85.17
73600;BME280;61877;48.246;9.220;2023-04-24T21:41:34;93571.63;;;4.49;84.55
73600;BME280;61877;48.246;9.220;2023-04-24T21:44:00;93568.81;;;4.45;84.76
73600;BME280;61877;48.246;9.220;2023-04-24T21:46:25;93569.44;;;4.42;86.30
73600;BME280;61877;48.246;9.220;2023-04-24T21:48:51;93566.94;;;4.37;86.42
73600;BME280;61877;48.246;9.220;2023-04-24T21:51:17;93574.59;;;4.39;85.14
73600;BME280;61877;48.246;9.220;2023-04-24T21:53:43;93572.53;;;4.27;85.79
73600;BME280;61877;48.246;9.220;2023-04-24T21:56:08;93581.59;;;4.26;86.25
73600;BME280;61877;48.246;9.220;2023-04-24T21:58:34;93574.41;;;4.27;86.79
73600;BME280;61877;48.246;9.220;2023-04-24T22:01:00;93565.97;;;4.25;86.91
73600;BME280;61877;48.246;9.220;2023-04-24T22:03:25;93570.50;;;4.16;86.51
73600;BME280;61877;48.246;9.220;2023-04-24T22:05:51;93572.81;;;4.09;87.10
73600;BME280;61877;48.246;9.220;2023-04-24T22:08:18;93567.19;;;4.02;86.85
73600;BME280;61877;48.246;9.220;2023-04-24T22:10:43;93574.50;;;4.05;87.08
73600;BME280;61877;48.246;9.220;2023-04-24T22:13:09;93575.03;;;4.15;86.05
73600;BME280;61877;48.246;9.220;2023-04-24T22:15:34;93570.66;;;4.19;86.72
73600;BME280;61877;48.246;9.220;2023-04-24T22:18:00;93562.06;;;4.22;86.72
73600;BME280;61877;48.246;9.220;2023-04-24T22:20:25;93566.56;;;4.13;86.66
73600;BME280;61877;48.246;9.220;2023-04-24T22:22:50;93560.34;;;4.09;86.13
73600;BME280;61877;48.246;9.220;2023-04-24T22:25:17;93559.38;;;4.05;86.37
73600;BME280;61877;48.246;9.220;2023-04-24T22:27:43;93559.56;;;4.09;86.48
73600;BME280;61877;48.246;9.220;2023-04-24T22:30:09;93562.69;;;4.11;86.73
73600;BME280;61877;48.246;9.220;2023-04-24T22:32:35;93567.38;;;4.22;85.98
73600;BME280;61877;48.246;9.220;2023-04-24T22:35:00;93566.00;;;4.33;84.64
73600;BME280;61877;48.246;9.220;2023-04-24T22:38:03;93561.16;;;4.44;85.11
73600;BME280;61877;48.246;9.220;2023-04-24T22:40:29;93556.50;;;4.49;85.48
73600;BME280;61877;48.246;9.220;2023-04-24T22:42:55;93558.19;;;4.54;85.24
73600;BME280;61877;48.246;9.220;2023-04-24T22:45:20;93564.91;;;4.51;84.47
73600;BME280;61877;48.246;9.220;2023-04-24T22:47:46;93561.66;;;4.54;85.11
73600;BME280;61877;48.246;9.220;2023-04-24T22:50:11;93556.03;;;4.56;85.20
73600;BME280;61877;48.246;9.220;2023-04-24T22:52:36;93561.50;;;4.51;85.16
73600;BME280;61877;48.246;9.220;2023-04-24T22:55:02;93563.69;;;4.66;84.51
73600;BME280;61877;48.246;9.220;2023-04-24T22:57:29;93555.41;;;4.67;84.49
73600;BME280;61877;48.246;9.220;2023-04-24T22:59:54;93557.09;;;4.72;85.13
73600;BME280;61877;48.246;9.220;2023-04-24T23:02:22;93560.25;;;4.74;85.15
73600;BME280;61877;48.246;9.220;2023-04-24T23:04:51;93559.28;;;4.70;85.48
73600;BME280;61877;48.246;9.220;2023-04-24T23:07:16;93557.25;;;4.67;84.83
73600;BME280;61877;48.246;9.220;2023-04-24T23:09:41;93555.09;;;4.69;84.78
73600;BME280;61877;48.246;9.220;2023-04-24T23:12:07;93555.56;;;4.71;83.92
73600;BME280;61877;48.246;9.220;2023-04-24T23:14:33;93551.78;;;4.80;84.56
73600;BME280;61877;48.246;9.220;2023-04-24T23:16:59;93551.31;;;4.78;85.01
73600;BME280;61877;48.246;9.220;2023-04-24T23:19:24;93544.28;;;4.82;85.05
73600;BME280;61877;48.246;9.220;2023-04-24T23:21:49;93546.16;;;4.90;85.43
73600;BME280;61877;48.246;9.220;2023-04-24T23:24:15;93548.34;;;4.88;85.33
73600;BME280;61877;48.246;9.220;2023-04-24T23:26:40;93541.16;;;4.89;85.64
73600;BME280;61877;48.246;9.220;2023-04-24T23:29:06;93544.91;;;4.88;85.81
73600;BME280;61877;48.246;9.220;2023-04-24T23:31:32;93538.34;;;4.85;85.48
73600;BME280;61877;48.246;9.220;2023-04-24T23:33:58;93529.75;;;4.88;85.88
73600;BME280;61877;48.246;9.220;2023-04-24T23:36:23;93528.94;;;4.88;86.01
73600;BME280;61877;48.246;9.220;2023-04-24T23:38:49;93530.06;;;4.87;85.95
73600;BME280;61877;48.246;9.220;2023-04-24T23:41:14;93537.09;;;4.83;85.35
73600;BME280;61877;48.246;9.220;2023-04-24T23:43:39;93537.41;;;4.81;85.99
73600;BME280;61877;48.246;9.220;2023-04-24T23:46:05;93532.41;;;4.80;85.85
73600;BME280;61877;48.246;9.220;2023-04-24T23:48:31;93536.16;;;4.79;85.93
73600;BME280;61877;48.246;9.220;2023-04-24T23:50:57;93547.25;;;4.81;86.60
73600;BME280;61877;48.246;9.220;2023-04-24T23:53:23;93543.19;;;4.83;86.36
73600;BME280;61877;48.246;9.220;2023-04-24T23:55:48;93541.91;;;4.81;85.24
73600;BME280;61877;48.246;9.220;2023-04-24T23:58:13;93536.59;;;4.89;85.61
